CheckWX is a tool to help pilots better visualize weather data.  It is not intended as a substitute for an official pre-flight weather briefing.

04:51:20 UTC

KMCJ METAR
Houston
Houston, Texas, USA
Current

16 mins ago

KMCJ 260435Z AUTO 00000KT 8SM SCT008 26/25 A2982 RMK A01
Observed
Aug-26 @ 04:35 UTC
Visibility
8 SM
Flight Rules
VFR
Cloud Levels
  • Scattered at 800' AGL
Temperature
26°C / 79°F
Dewpoint
25°C / 77°F
Humidity
94%
Altimeter
29.82" Hg
Pressure
1009.82 hPa
Previous

36 mins ago

KMCJ 260415Z AUTO 00000KT 8SM SCT008 27/25 A2982 RMK A01
Observed
Aug-26 @ 04:15 UTC
Visibility
8 SM
Flight Rules
VFR
Cloud Levels
  • Scattered at 800' AGL
Temperature
27°C / 81°F
Dewpoint
25°C / 77°F
Heat Index
31°C / 88°F
Humidity
89%
Altimeter
29.82" Hg
Pressure
1009.82 hPa
Previous

56 mins ago

KMCJ 260355Z AUTO 00000KT 10SM BKN007 BKN012 BKN018 27/25 A2982 RMK A01
Observed
Aug-26 @ 03:55 UTC
Visibility
10 SM
Flight Rules
IFR
Cloud Levels
  • Broken at 700' AGL
  • Broken at 1,200' AGL
  • Broken at 1,800' AGL
Temperature
27°C / 81°F
Dewpoint
25°C / 77°F
Heat Index
31°C / 88°F
Humidity
89%
Altimeter
29.82" Hg
Pressure
1009.82 hPa